Time;durP1;ratioP1;P1;durP2;ratioP2;P2;SDS_P1;SDS_P2;PMS_P1;PMS_P2;Temp;Humidity;BMP_temperature;BMP_pressure;BME280_temperature;BME280_humidity;BME280_pressure;Samples;Min_cycle;Max_cycle;Signal;HPM_P1;HPM_P2
2021/06/19 00:00:08;;;;;;;2.38;2.03;;;;;;;19.83;100.00;101254.28;5262314;28;20420;-85
2021/06/19 00:02:39;;;;;;;7.30;2.63;;;;;;;19.77;100.00;101249.66;5253000;28;20332;-85
2021/06/19 00:05:10;;;;;;;4.63;2.13;;;;;;;19.77;100.00;101251.56;5252826;28;20475;-85
2021/06/19 00:07:42;;;;;;;4.65;2.50;;;;;;;19.75;100.00;101261.84;5247087;28;20111;-84
2021/06/19 00:10:13;;;;;;;4.35;2.22;;;;;;;19.73;100.00;101256.63;5246686;28;20025;-84
2021/06/19 00:12:45;;;;;;;3.10;2.17;;;;;;;19.76;100.00;101255.34;5260353;28;20102;-84
2021/06/19 00:15:18;;;;;;;4.35;2.20;;;;;;;19.76;100.00;101249.91;5267612;28;20073;-84
2021/06/19 00:17:48;;;;;;;2.55;2.10;;;;;;;19.79;100.00;101255.75;5252825;28;20020;-84
2021/06/19 00:20:25;;;;;;;4.57;2.38;;;;;;;19.85;100.00;101254.88;5255677;28;20012;-84
2021/06/19 00:22:55;;;;;;;5.18;2.22;;;;;;;19.86;100.00;101255.72;5253936;28;20054;-84
2021/06/19 00:25:28;;;;;;;4.55;1.83;;;;;;;19.88;100.00;101254.44;5267747;28;20060;-84
2021/06/19 00:27:58;;;;;;;2.72;1.85;;;;;;;19.88;100.00;101249.00;5268614;28;20047;-84
2021/06/19 00:30:29;;;;;;;3.53;2.10;;;;;;;19.87;100.00;101257.38;5255045;28;20063;-84
2021/06/19 00:32:59;;;;;;;3.85;2.30;;;;;;;19.82;100.00;101260.75;5266690;28;20024;-84
2021/06/19 00:35:29;;;;;;;6.43;2.65;;;;;;;19.77;100.00;101254.28;5266818;28;20016;-84
2021/06/19 00:38:00;;;;;;;3.25;2.20;;;;;;;19.71;100.00;101257.88;5248374;28;20483;-84
2021/06/19 00:40:30;;;;;;;4.68;2.35;;;;;;;19.65;100.00;101259.59;5261209;28;20059;-85
2021/06/19 00:43:03;;;;;;;5.13;2.28;;;;;;;19.57;100.00;101251.63;5257994;28;20029;-85
2021/06/19 00:45:39;;;;;;;2.97;2.53;;;;;;;19.51;100.00;101272.38;5263788;28;20028;-85
2021/06/19 00:48:12;;;;;;;5.38;2.92;;;;;;;19.45;100.00;101269.69;5255653;28;20356;-84
2021/06/19 00:50:43;;;;;;;8.02;2.63;;;;;;;19.42;100.00;101288.09;5265591;28;20012;-85
2021/06/19 00:53:13;;;;;;;8.32;2.88;;;;;;;19.48;100.00;101286.41;5246404;28;20561;-84
2021/06/19 00:55:44;;;;;;;3.10;2.65;;;;;;;19.59;100.00;101293.06;5267091;28;20081;-85
2021/06/19 00:58:15;;;;;;;5.13;2.53;;;;;;;19.61;100.00;101301.88;5248928;28;20028;-84
2021/06/19 01:00:45;;;;;;;3.50;2.78;;;;;;;19.63;100.00;101299.78;5266908;28;20024;-84
2021/06/19 01:03:16;;;;;;;6.65;3.10;;;;;;;19.60;100.00;101292.06;5250418;28;20028;-84
2021/06/19 01:05:49;;;;;;;4.25;3.05;;;;;;;19.52;100.00;101303.13;5255677;28;20016;-84
2021/06/19 01:08:21;;;;;;;6.80;3.28;;;;;;;19.49;100.00;101300.84;5266871;28;20028;-84
2021/06/19 01:10:55;;;;;;;9.50;3.08;;;;;;;19.43;100.00;101297.09;5266785;28;20065;-84
2021/06/19 01:13:26;;;;;;;7.05;2.75;;;;;;;19.37;100.00;101295.22;5261598;28;20606;-84
2021/06/19 01:15:59;;;;;;;4.00;2.75;;;;;;;19.36;100.00;101296.28;5257796;28;20100;-85
2021/06/19 01:18:29;;;;;;;6.40;3.13;;;;;;;19.34;100.00;101298.38;5266459;28;20053;-85
2021/06/19 01:21:00;;;;;;;6.93;3.25;;;;;;;19.35;100.00;101298.16;5265979;28;20453;-84
2021/06/19 01:23:31;;;;;;;3.50;2.90;;;;;;;19.42;100.00;101303.56;5253909;28;20032;-84
2021/06/19 01:26:01;;;;;;;4.05;2.78;;;;;;;19.57;100.00;101311.47;5266304;28;20111;-84
2021/06/19 01:28:32;;;;;;;4.45;2.80;;;;;;;19.59;100.00;101306.69;5266322;28;20107;-84
2021/06/19 01:31:03;;;;;;;5.03;3.35;;;;;;;19.58;100.00;101310.47;5266211;28;20510;-84
2021/06/19 01:33:34;;;;;;;4.28;2.85;;;;;;;19.53;100.00;101297.50;5266292;28;20099;-84
2021/06/19 01:36:06;;;;;;;2.88;2.60;;;;;;;19.46;100.00;101293.94;5265882;28;20020;-84
2021/06/19 01:38:39;;;;;;;7.25;2.53;;;;;;;19.44;100.00;101303.38;5250182;28;20032;-84
2021/06/19 01:41:18;;;;;;;3.05;2.63;;;;;;;19.39;100.00;101302.13;5245127;28;20544;-84
2021/06/19 01:43:57;;;;;;;6.50;3.28;;;;;;;19.26;100.00;101295.88;5259585;28;20028;-84
2021/06/19 01:46:29;;;;;;;4.03;2.42;;;;;;;19.22;100.00;101305.50;5265916;28;20031;-85
2021/06/19 01:49:00;;;;;;;4.78;2.70;;;;;;;19.21;100.00;101291.06;5248821;28;20353;-84
2021/06/19 01:51:32;;;;;;;5.72;2.75;;;;;;;19.15;100.00;101291.94;5249067;28;20023;-84
2021/06/19 01:54:04;;;;;;;7.68;2.50;;;;;;;19.15;100.00;101292.75;5250122;28;20024;-84
2021/06/19 01:56:35;;;;;;;3.28;2.30;;;;;;;19.10;100.00;101294.44;5265963;28;20498;-84
2021/06/19 01:59:06;;;;;;;6.97;2.50;;;;;;;18.94;100.00;101276.69;5265304;28;20093;-84
2021/06/19 02:01:38;;;;;;;6.20;2.55;;;;;;;18.81;100.00;101280.25;5251318;28;20051;-84
2021/06/19 02:04:09;;;;;;;4.82;2.85;;;;;;;18.67;100.00;101289.41;5265380;28;20020;-84
2021/06/19 02:06:39;;;;;;;3.63;2.88;;;;;;;18.58;100.00;101304.28;5261620;28;20029;-85
2021/06/19 02:09:10;;;;;;;7.18;2.97;;;;;;;18.45;100.00;101302.38;5254556;28;20378;-85
2021/06/19 02:11:40;;;;;;;3.85;2.58;;;;;;;18.44;100.00;101300.69;5265371;28;20141;-84
2021/06/19 02:14:13;;;;;;;4.70;2.92;;;;;;;18.35;100.00;101299.22;5264970;28;20479;-84
2021/06/19 02:16:44;;;;;;;5.65;2.90;;;;;;;18.42;100.00;101299.22;5265192;28;20032;-84
2021/06/19 02:19:14;;;;;;;6.13;2.78;;;;;;;18.41;100.00;101297.56;5265000;28;20047;-84
2021/06/19 02:21:45;;;;;;;4.13;2.50;;;;;;;18.37;100.00;101298.00;5264932;28;20020;-84
2021/06/19 02:24:15;;;;;;;6.28;2.53;;;;;;;18.45;100.00;101306.97;5265269;28;20364;-84
2021/06/19 02:26:48;;;;;;;8.43;2.90;;;;;;;18.46;100.00;101301.31;5263828;28;20046;-84
2021/06/19 02:29:18;;;;;;;4.00;2.85;;;;;;;18.37;100.00;101321.56;5264885;28;20103;-84
2021/06/19 02:31:48;;;;;;;4.10;2.58;;;;;;;18.34;100.00;101317.41;5264560;28;20600;-84
2021/06/19 02:34:19;;;;;;;5.00;2.97;;;;;;;18.22;100.00;101316.31;5263116;28;20107;-84
2021/06/19 02:36:49;;;;;;;4.50;2.85;;;;;;;18.27;100.00;101323.84;5263145;28;20027;-84
2021/06/19 02:39:20;;;;;;;3.58;3.00;;;;;;;18.29;100.00;101322.63;5259268;28;20027;-84
2021/06/19 02:41:50;;;;;;;3.75;3.10;;;;;;;18.20;100.00;101323.84;5256414;28;20028;-84
2021/06/19 02:44:21;;;;;;;4.88;4.05;;;;;;;18.25;100.00;101321.34;5264747;28;20449;-84
2021/06/19 02:46:51;;;;;;;6.65;3.70;;;;;;;18.15;100.00;101334.47;5251383;28;20103;-84
2021/06/19 02:49:22;;;;;;;6.72;3.70;;;;;;;18.07;100.00;101338.22;5264116;28;20490;-84
2021/06/19 02:51:52;;;;;;;6.07;3.42;;;;;;;18.08;100.00;101330.91;5264148;28;20118;-84
2021/06/19 02:54:23;;;;;;;7.07;3.42;;;;;;;17.98;100.00;101330.47;5264553;28;20032;-84
2021/06/19 02:56:53;;;;;;;9.00;4.03;;;;;;;17.94;100.00;101342.75;5264493;28;20036;-84
2021/06/19 02:59:24;;;;;;;4.85;3.85;;;;;;;17.86;100.00;101335.63;5264374;28;20023;-84
2021/06/19 03:01:54;;;;;;;9.60;3.88;;;;;;;17.89;100.00;101337.94;5263986;28;20059;-85
2021/06/19 03:04:24;;;;;;;12.15;3.97;;;;;;;17.78;100.00;101333.09;5264328;28;20027;-84
2021/06/19 03:06:56;;;;;;;4.90;3.75;;;;;;;17.65;100.00;101343.84;5257381;28;20107;-84
2021/06/19 03:09:26;;;;;;;7.38;3.45;;;;;;;17.65;100.00;101341.97;5255696;28;20019;-84
2021/06/19 03:11:57;;;;;;;6.50;3.92;;;;;;;17.63;100.00;101338.63;5264114;28;20032;-84
2021/06/19 03:14:27;;;;;;;6.40;4.13;;;;;;;17.55;100.00;101333.34;5263918;28;20020;-84
2021/06/19 03:16:58;;;;;;;5.07;3.90;;;;;;;17.52;100.00;101331.91;5264083;28;20051;-84
2021/06/19 03:19:29;;;;;;;7.53;5.30;;;;;;;17.51;100.00;101341.03;5263756;28;20108;-84
2021/06/19 03:22:00;;;;;;;8.35;4.80;;;;;;;17.48;100.00;101354.19;5255287;28;20586;-84
2021/06/19 03:24:37;;;;;;;8.55;5.50;;;;;;;17.45;100.00;101338.31;5259403;28;20043;-84
2021/06/19 03:27:09;;;;;;;11.05;5.55;;;;;;;17.44;100.00;101342.88;5263833;28;20034;-84
2021/06/19 03:29:40;;;;;;;13.07;6.03;;;;;;;17.49;100.00;101358.56;5250448;28;20379;-84
2021/06/19 03:32:11;;;;;;;9.90;6.30;;;;;;;17.47;100.00;101360.63;5245316;28;20036;-84
2021/06/19 03:34:41;;;;;;;8.05;6.00;;;;;;;17.38;100.00;101365.38;5263782;28;20031;-84
2021/06/19 03:37:12;;;;;;;11.70;6.90;;;;;;;17.37;100.00;101365.56;5260858;28;20143;-84
2021/06/19 03:39:42;;;;;;;10.77;7.72;;;;;;;17.31;100.00;101362.63;5263437;28;20051;-84
2021/06/19 03:42:13;;;;;;;10.52;7.32;;;;;;;17.30;100.00;101370.97;5262410;28;20056;-84
2021/06/19 03:44:43;;;;;;;9.70;6.75;;;;;;;17.30;100.00;101365.53;5251389;28;20032;-84
2021/06/19 03:47:14;;;;;;;10.60;7.30;;;;;;;17.29;100.00;101372.84;5263593;28;20092;-84
2021/06/19 03:49:44;;;;;;;10.73;7.32;;;;;;;17.49;100.00;101374.84;5263847;28;20107;-84
2021/06/19 03:52:14;;;;;;;9.98;6.50;;;;;;;17.42;100.00;101382.94;5263346;28;20024;-84
2021/06/19 03:54:45;;;;;;;11.60;7.05;;;;;;;17.45;100.00;101379.00;5263865;28;20024;-84
2021/06/19 03:57:28;;;;;;;12.35;8.05;;;;;;;17.49;100.00;101381.09;5250241;28;20021;-84
2021/06/19 03:59:59;;;;;;;13.15;8.00;;;;;;;17.55;100.00;101385.72;5263869;28;20071;-84
2021/06/19 04:02:30;;;;;;;11.15;7.15;;;;;;;17.54;100.00;101388.66;5263445;28;20042;-84
2021/06/19 04:05:00;;;;;;;12.75;7.40;;;;;;;17.60;100.00;101391.41;5261574;28;20024;-84
2021/06/19 04:07:31;;;;;;;10.60;6.90;;;;;;;17.64;100.00;101399.16;5263633;28;20046;-84
2021/06/19 04:10:04;;;;;;;12.48;7.97;;;;;;;17.68;100.00;101398.56;5263984;28;20049;-84
2021/06/19 04:12:34;;;;;;;10.93;8.05;;;;;;;17.77;100.00;101407.38;5252238;28;20368;-84
2021/06/19 04:15:07;;;;;;;10.40;7.72;;;;;;;17.79;100.00;101419.72;5248291;28;20023;-84
2021/06/19 04:17:38;;;;;;;9.60;7.43;;;;;;;17.84;100.00;101416.41;5250489;28;20535;-84
2021/06/19 04:20:11;;;;;;;10.77;7.65;;;;;;;17.92;100.00;101405.38;5262860;28;20055;-84
2021/06/19 04:22:43;;;;;;;16.27;10.45;;;;;;;17.92;100.00;101415.41;5248721;28;20095;-84
2021/06/19 04:25:15;;;;;;;17.40;10.50;;;;;;;17.85;100.00;101427.06;5251673;28;20295;-84
2021/06/19 04:27:51;;;;;;;12.13;9.52;;;;;;;17.76;100.00;101430.13;5247177;28;20024;-84
2021/06/19 04:30:23;;;;;;;15.05;9.73;;;;;;;17.73;100.00;101431.38;5243115;28;20366;-84
2021/06/19 04:32:55;;;;;;;15.38;10.65;;;;;;;17.84;100.00;101436.25;5248229;28;20639;-84
2021/06/19 04:35:27;;;;;;;15.50;10.68;;;;;;;17.81;100.00;101439.34;5251571;28;20394;-84
2021/06/19 04:37:57;;;;;;;17.10;10.70;;;;;;;17.88;100.00;101449.44;5235458;28;20024;-84
2021/06/19 04:45:36;;;;;;;13.73;9.73;;;;;;;17.99;100.00;101454.28;5260933;28;20028;-84
2021/06/19 04:48:07;;;;;;;18.33;10.27;;;;;;;17.95;100.00;101453.00;5252335;28;20028;-84
2021/06/19 04:50:38;;;;;;;16.33;10.73;;;;;;;17.98;100.00;101466.19;5252245;28;20149;-84
2021/06/19 04:53:11;;;;;;;15.68;10.25;;;;;;;18.03;100.00;101477.28;5267573;28;20107;-84
2021/06/19 04:55:42;;;;;;;15.40;9.98;;;;;;;18.07;100.00;101467.69;5267047;28;20028;-84
2021/06/19 04:58:13;;;;;;;16.80;11.07;;;;;;;18.16;100.00;101477.34;5268421;28;20031;-85
2021/06/19 05:00:43;;;;;;;13.85;9.43;;;;;;;18.11;100.00;101483.38;5249133;28;20472;-85
2021/06/19 05:03:17;;;;;;;14.73;10.10;;;;;;;18.13;100.00;101488.63;5260895;28;20027;-85
2021/06/19 05:05:50;;;;;;;19.95;10.30;;;;;;;18.18;100.00;101496.16;5265920;28;20020;-85
2021/06/19 05:08:20;;;;;;;13.45;8.88;;;;;;;18.17;100.00;101483.59;5250842;28;20052;-85
2021/06/19 05:10:51;;;;;;;13.63;9.40;;;;;;;18.17;100.00;101480.91;5247187;28;20503;-85
2021/06/19 05:13:21;;;;;;;15.27;9.30;;;;;;;18.32;100.00;101489.75;5260458;28;20507;-85
2021/06/19 05:15:51;;;;;;;12.27;9.32;;;;;;;18.32;100.00;101479.75;5265865;28;20027;-84
2021/06/19 05:18:22;;;;;;;10.90;8.15;;;;;;;18.38;100.00;101480.81;5267858;28;20020;-84
2021/06/19 05:20:52;;;;;;;12.50;8.20;;;;;;;18.35;100.00;101482.03;5263311;28;20036;-83
2021/06/19 05:23:23;;;;;;;10.75;7.28;;;;;;;18.33;100.00;101483.28;5265150;28;20028;-84
2021/06/19 05:25:53;;;;;;;11.68;7.78;;;;;;;18.38;100.00;101478.94;5270792;28;20030;-84
2021/06/19 05:28:24;;;;;;;13.48;8.13;;;;;;;18.47;100.00;101495.88;5257208;28;20567;-85
2021/06/19 05:30:54;;;;;;;14.02;7.95;;;;;;;18.59;100.00;101488.84;5258965;28;20021;-85
2021/06/19 05:33:25;;;;;;;10.13;7.10;;;;;;;18.55;100.00;101494.88;5271310;28;20471;-84
2021/06/19 05:35:55;;;;;;;10.77;7.18;;;;;;;18.53;100.00;101500.53;5271360;28;20035;-84
2021/06/19 05:38:26;;;;;;;12.98;7.95;;;;;;;18.51;100.00;101499.88;5270203;28;20023;-84
2021/06/19 05:40:56;;;;;;;10.88;7.03;;;;;;;18.45;100.00;101503.41;5268814;28;20103;-84
2021/06/19 05:43:26;;;;;;;11.50;7.88;;;;;;;18.47;100.00;101495.88;5269023;28;20020;-84
2021/06/19 05:45:57;;;;;;;9.38;6.32;;;;;;;18.50;100.00;101492.75;5247653;28;20036;-84
2021/06/19 05:48:28;;;;;;;9.13;6.93;;;;;;;18.53;100.00;101499.69;5245329;28;20024;-82
2021/06/19 05:50:58;;;;;;;11.30;7.22;;;;;;;18.41;100.00;101509.44;5245619;28;20425;-83
2021/06/19 05:53:29;;;;;;;8.80;6.35;;;;;;;18.36;100.00;101504.59;5245453;28;20024;-84
2021/06/19 05:55:59;;;;;;;14.18;7.70;;;;;;;18.31;100.00;101507.09;5245242;28;20112;-84
2021/06/19 05:58:30;;;;;;;11.85;7.05;;;;;;;18.27;100.00;101508.53;5245376;28;20031;-84
2021/06/19 06:01:00;;;;;;;9.15;6.22;;;;;;;18.31;100.00;101513.34;5245185;28;20028;-84
2021/06/19 06:03:31;;;;;;;9.80;6.70;;;;;;;18.31;100.00;101502.50;5258502;28;20070;-84
2021/06/19 06:06:01;;;;;;;17.25;7.82;;;;;;;18.26;100.00;101502.25;5245123;28;20024;-82
2021/06/19 06:08:32;;;;;;;8.93;6.40;;;;;;;18.42;100.00;101508.38;5252860;28;20394;-83
2021/06/19 06:11:03;;;;;;;9.98;7.07;;;;;;;18.34;100.00;101510.25;5256907;28;20103;-83
2021/06/19 06:13:34;;;;;;;11.00;6.88;;;;;;;18.46;100.00;101509.66;5254598;28;20370;-83
2021/06/19 06:16:05;;;;;;;11.73;8.15;;;;;;;18.63;100.00;101508.28;5268419;28;20399;-82
2021/06/19 06:18:36;;;;;;;12.93;8.65;;;;;;;18.63;100.00;101508.28;5267682;28;20024;-83
2021/06/19 06:21:07;;;;;;;13.82;8.60;;;;;;;18.69;100.00;101514.81;5253700;28;20081;-82
2021/06/19 06:23:37;;;;;;;14.88;10.00;;;;;;;18.67;100.00;101514.97;5245390;28;20029;-82
2021/06/19 06:26:08;;;;;;;12.45;9.15;;;;;;;18.79;100.00;101516.09;5262297;28;20028;-83
2021/06/19 06:28:39;;;;;;;20.90;9.43;;;;;;;18.74;100.00;101515.06;5267623;28;20035;-83
2021/06/19 06:31:09;;;;;;;13.40;9.10;;;;;;;18.61;100.00;101513.06;5251327;28;20095;-83
2021/06/19 06:33:40;;;;;;;13.60;8.35;;;;;;;18.73;100.00;101526.97;5247787;28;20085;-82
2021/06/19 06:36:10;;;;;;;12.32;8.00;;;;;;;18.82;100.00;101517.56;5248711;28;20024;-82
2021/06/19 06:38:41;;;;;;;14.68;8.50;;;;;;;18.72;100.00;101509.78;5248268;28;20024;-82
2021/06/19 06:41:11;;;;;;;10.88;7.78;;;;;;;18.73;100.00;101505.22;5254518;28;20425;-83
2021/06/19 06:43:42;;;;;;;11.18;8.43;;;;;;;18.88;100.00;101508.63;5267690;28;20059;-82
2021/06/19 06:46:12;;;;;;;12.68;9.75;;;;;;;18.70;100.00;101511.88;5248599;28;20043;-82
2021/06/19 06:48:43;;;;;;;13.68;9.23;;;;;;;18.77;100.00;101522.78;5245896;28;20035;-83
2021/06/19 06:51:13;;;;;;;14.48;10.30;;;;;;;18.86;100.00;101530.53;5251402;28;20047;-83
2021/06/19 06:53:44;;;;;;;16.05;9.30;;;;;;;18.92;100.00;101525.34;5263753;28;20031;-84
2021/06/19 06:56:14;;;;;;;14.57;9.85;;;;;;;18.85;100.00;101515.28;5253423;28;20028;-84
2021/06/19 06:58:45;;;;;;;11.27;8.80;;;;;;;19.02;100.00;101514.91;5261810;28;20024;-83
2021/06/19 07:01:16;;;;;;;12.80;9.23;;;;;;;18.87;100.00;101524.06;5254413;28;20034;-84
2021/06/19 07:03:47;;;;;;;16.50;9.82;;;;;;;18.98;100.00;101519.09;5251052;28;20020;-84
2021/06/19 07:06:17;;;;;;;17.67;9.50;;;;;;;19.22;100.00;101515.78;5264184;28;20039;-83
2021/06/19 07:08:48;;;;;;;14.25;8.65;;;;;;;19.39;100.00;101518.94;5243978;28;20070;-83
2021/06/19 07:11:22;;;;;;;13.35;9.38;;;;;;;19.66;100.00;101514.38;5243451;28;20060;-84
2021/06/19 07:13:53;;;;;;;12.67;9.60;;;;;;;19.87;100.00;101507.84;5243586;28;20103;-85
2021/06/19 07:16:23;;;;;;;14.10;8.60;;;;;;;19.90;100.00;101510.16;5257658;28;20356;-82
2021/06/19 07:18:54;;;;;;;12.18;7.75;;;;;;;20.09;100.00;101503.84;5253781;28;20451;-82
2021/06/19 07:21:25;;;;;;;13.10;7.13;;;;;;;20.24;100.00;101506.31;5247358;28;20016;-84
2021/06/19 07:23:56;;;;;;;7.47;6.10;;;;;;;20.32;100.00;101506.06;5255321;28;20359;-84
2021/06/19 07:26:27;;;;;;;11.48;7.05;;;;;;;20.32;100.00;101495.16;5259167;28;20086;-83
2021/06/19 07:28:58;;;;;;;10.45;6.35;;;;;;;20.55;100.00;101491.16;5243547;28;20099;-84
2021/06/19 07:31:29;;;;;;;9.93;5.70;;;;;;;20.65;100.00;101492.34;5249970;28;20103;-84
2021/06/19 07:33:59;;;;;;;8.40;6.05;;;;;;;20.43;100.00;101491.81;5250573;28;20472;-83
2021/06/19 07:36:30;;;;;;;21.60;6.85;;;;;;;20.85;100.00;101500.44;5264475;28;20020;-84
2021/06/19 07:39:01;;;;;;;9.18;6.15;;;;;;;20.87;100.00;101490.13;5259606;28;20024;-82
2021/06/19 07:41:31;;;;;;;9.10;6.13;;;;;;;21.07;100.00;101491.91;5255115;28;20112;-85
2021/06/19 07:44:02;;;;;;;10.35;6.20;;;;;;;21.17;100.00;101509.44;5249094;28;20474;-85
2021/06/19 07:46:32;;;;;;;8.98;5.18;;;;;;;21.45;100.00;101510.97;5263698;28;20551;-83
2021/06/19 07:49:03;;;;;;;6.45;4.78;;;;;;;21.53;100.00;101497.03;5263202;28;20090;-84
2021/06/19 07:51:33;;;;;;;7.47;4.28;;;;;;;21.39;100.00;101506.41;5245711;28;20034;-84
2021/06/19 07:54:04;;;;;;;7.80;3.85;;;;;;;21.42;100.00;101508.69;5253393;28;20016;-84
2021/06/19 07:56:34;;;;;;;6.50;4.38;;;;;;;21.12;100.00;101512.00;5254772;28;20493;-84
2021/06/19 07:59:05;;;;;;;11.32;4.50;;;;;;;21.00;100.00;101510.22;5262798;28;20483;-83
2021/06/19 08:01:35;;;;;;;6.90;4.90;;;;;;;20.79;100.00;101522.28;5263482;28;20024;-84
2021/06/19 08:04:06;;;;;;;7.35;5.18;;;;;;;20.51;100.00;101512.53;5262994;28;20086;-84
2021/06/19 08:06:36;;;;;;;14.40;4.90;;;;;;;20.54;100.00;101514.00;5260206;28;20153;-83
2021/06/19 08:09:07;;;;;;;6.03;4.63;;;;;;;20.73;100.00;101510.34;5242380;28;20013;-84
2021/06/19 08:11:37;;;;;;;8.30;5.10;;;;;;;20.84;100.00;101515.13;5246229;28;20271;-85
2021/06/19 08:14:08;;;;;;;7.13;4.82;;;;;;;21.12;100.00;101517.47;5263274;28;20474;-84
2021/06/19 08:16:39;;;;;;;6.82;5.45;;;;;;;21.13;100.00;101523.75;5249736;28;20032;-84
2021/06/19 08:19:09;;;;;;;8.07;5.60;;;;;;;21.18;100.00;101515.75;5262941;28;20024;-84
2021/06/19 08:21:40;;;;;;;8.00;5.30;;;;;;;21.18;100.00;101508.38;5263102;28;20026;-85
2021/06/19 08:24:11;;;;;;;7.43;5.53;;;;;;;21.31;100.00;101517.59;5264426;28;20028;-84
2021/06/19 08:26:43;;;;;;;9.07;5.38;;;;;;;21.28;100.00;101521.53;5267178;28;20024;-84
2021/06/19 08:29:13;;;;;;;8.25;6.63;;;;;;;21.30;100.00;101519.47;5265452;28;20087;-83
2021/06/19 08:31:44;;;;;;;10.63;6.65;;;;;;;21.15;100.00;101517.03;5254699;28;20020;-83
2021/06/19 08:34:14;;;;;;;8.55;6.63;;;;;;;20.80;100.00;101504.88;5267541;28;20124;-83
2021/06/19 08:36:45;;;;;;;10.70;6.53;;;;;;;20.91;100.00;101506.91;5267005;28;20081;-84
2021/06/19 08:39:16;;;;;;;9.50;6.07;;;;;;;20.89;100.00;101500.84;5263423;28;20024;-84
2021/06/19 08:41:48;;;;;;;7.28;5.80;;;;;;;20.95;100.00;101510.88;5266965;28;20028;-84
2021/06/19 08:44:21;;;;;;;9.23;6.82;;;;;;;20.72;100.00;101508.66;5267008;28;20542;-82
2021/06/19 08:46:54;;;;;;;8.80;6.13;;;;;;;20.77;100.00;101506.13;5267216;28;20073;-83
2021/06/19 08:49:26;;;;;;;9.93;6.40;;;;;;;20.83;100.00;101509.88;5267267;28;20015;-83
2021/06/19 08:51:59;;;;;;;10.35;6.15;;;;;;;20.95;100.00;101508.13;5265266;28;20279;-83
2021/06/19 08:54:38;;;;;;;9.38;6.00;;;;;;;20.88;100.00;101515.50;5267579;28;20028;-82
2021/06/19 08:57:11;;;;;;;8.77;6.70;;;;;;;20.65;100.00;101505.16;5266940;28;20083;-84
2021/06/19 08:59:50;;;;;;;9.52;6.45;;;;;;;20.60;100.00;101510.41;5266964;28;20027;-82
2021/06/19 09:02:20;;;;;;;9.02;6.03;;;;;;;;;;5252952;28;20024;-84
2021/06/19 09:05:12;;;;;;;13.25;7.22;;;;;;;20.88;100.00;101494.56;5256099;28;20023;-84
2021/06/19 09:07:44;;;;;;;12.63;7.93;;;;;;;20.93;100.00;101488.41;5255119;28;20035;-84
2021/06/19 09:10:21;;;;;;;11.02;8.18;;;;;;;20.90;100.00;101486.13;5265006;28;20032;-84
2021/06/19 09:13:07;;;;;;;13.18;8.52;;;;;;;20.87;100.00;101490.13;5266051;28;20024;-84
2021/06/19 09:15:43;;;;;;;13.80;9.15;;;;;;;21.16;100.00;101491.41;5266441;28;20076;-84
2021/06/19 09:18:25;;;;;;;13.90;9.02;;;;;;;21.10;100.00;101486.84;5266344;28;20402;-84
2021/06/19 09:20:58;;;;;;;16.17;9.95;;;;;;;21.24;100.00;101490.31;5266359;28;20024;-84
2021/06/19 09:23:33;;;;;;;19.30;11.50;;;;;;;21.01;100.00;101490.88;5266262;28;20024;-84
2021/06/19 09:26:09;;;;;;;15.98;11.23;;;;;;;21.14;100.00;101492.72;5266784;28;20099;-84
2021/06/19 09:29:07;;;;;;;17.00;11.70;;;;;;;21.25;100.00;101508.38;5267292;28;20031;-84
2021/06/19 09:31:47;;;;;;;19.63;12.88;;;;;;;21.16;100.00;101512.41;5244918;28;20025;-83
2021/06/19 09:34:21;;;;;;;18.05;11.52;;;;;;;21.04;100.00;101497.81;5245576;28;20035;-84
2021/06/19 09:36:54;;;;;;;21.00;14.10;;;;;;;20.90;100.00;101511.53;5246337;28;20108;-84
2021/06/19 09:39:28;;;;;;;19.08;13.02;;;;;;;21.02;100.00;101510.81;5263417;28;20025;-84
2021/06/19 09:42:01;;;;;;;20.88;13.23;;;;;;;21.23;100.00;101509.63;5265527;28;20058;-84
2021/06/19 09:44:34;;;;;;;19.42;14.13;;;;;;;21.06;100.00;101501.16;5252562;28;20020;-85
2021/06/19 09:47:06;;;;;;;23.25;13.50;;;;;;;20.98;100.00;101513.13;5265722;28;20027;-84
2021/06/19 09:49:42;;;;;;;19.63;13.98;;;;;;;20.87;100.00;101501.03;5265548;28;20109;-84
2021/06/19 09:52:13;;;;;;;26.65;15.43;;;;;;;21.11;100.00;101498.59;5252248;28;20024;-84
2021/06/19 09:54:56;;;;;;;23.25;15.82;;;;;;;21.36;100.00;101513.13;5265754;28;20024;-85
2021/06/19 09:57:47;;;;;;;21.55;15.80;;;;;;;21.30;100.00;101515.88;5245166;28;20471;-83
2021/06/19 10:00:19;;;;;;;23.33;14.05;;;;;;;21.51;100.00;101520.16;5265237;28;20020;-84
2021/06/19 10:03:03;;;;;;;19.08;14.48;;;;;;;21.58;100.00;101510.00;5256862;28;20024;-85
2021/06/19 10:05:34;;;;;;;23.77;14.43;;;;;;;22.04;100.00;101517.78;5264366;28;20012;-84
2021/06/19 10:08:07;;;;;;;21.73;13.85;;;;;;;22.01;100.00;101509.22;5264895;28;20081;-83
2021/06/19 10:10:38;;;;;;;26.23;15.43;;;;;;;21.85;100.00;101516.91;5265437;28;20016;-83
2021/06/19 10:13:08;;;;;;;20.35;14.90;;;;;;;21.78;100.00;101513.41;5264797;28;20024;-84
2021/06/19 10:15:39;;;;;;;20.23;13.50;;;;;;;22.01;100.00;101511.94;5265240;28;20386;-85
2021/06/19 10:18:10;;;;;;;16.23;12.57;;;;;;;22.31;100.00;101510.16;5252114;28;20115;-84
2021/06/19 10:20:41;;;;;;;20.13;12.93;;;;;;;22.38;100.00;101507.34;5254204;28;20369;-84
2021/06/19 10:23:11;;;;;;;19.00;12.60;;;;;;;22.41;100.00;101505.00;5258587;28;20206;-83
2021/06/19 10:25:46;;;;;;;22.50;13.57;;;;;;;22.45;100.00;101499.91;5257386;28;20020;-84
2021/06/19 10:28:17;;;;;;;17.90;12.65;;;;;;;22.63;100.00;101491.66;5233998;28;20024;-84
2021/06/19 10:30:49;;;;;;;21.42;11.48;;;;;;;23.04;100.00;101494.72;5250618;28;20051;-84
2021/06/19 10:33:33;;;;;;;18.08;10.98;;;;;;;23.42;100.00;101483.38;5253125;28;20020;-83
2021/06/19 10:36:07;;;;;;;21.02;11.25;;;;;;;23.33;100.00;101462.88;5264930;28;20106;-83
2021/06/19 10:38:56;;;;;;;18.88;10.85;;;;;;;23.47;100.00;101467.91;5248737;28;20021;-83
2021/06/19 10:41:42;;;;;;;19.50;10.88;;;;;;;23.05;100.00;101464.41;5252134;28;20036;-83
2021/06/19 10:44:12;;;;;;;19.20;11.18;;;;;;;23.29;100.00;101478.94;5264400;28;20024;-84
2021/06/19 10:46:43;;;;;;;21.23;12.68;;;;;;;23.36;100.00;101476.13;5263548;28;20455;-83
2021/06/19 10:49:20;;;;;;;18.08;12.82;;;;;;;23.14;100.00;101475.81;5263827;28;20082;-84
2021/06/19 10:52:30;;;;;;;25.10;13.90;;;;;;;22.85;100.00;101467.41;5264382;28;20016;-84
2021/06/19 10:55:10;;;;;;;19.75;12.50;;;;;;;23.11;100.00;101466.19;5263976;28;20081;-83
2021/06/19 10:57:42;;;;;;;21.33;13.73;;;;;;;22.88;100.00;101472.41;5264169;28;20536;-84
2021/06/19 11:00:31;;;;;;;17.15;12.32;;;;;;;22.93;100.00;101458.03;5263697;28;20016;-84
2021/06/19 11:03:05;;;;;;;20.88;12.48;;;;;;;23.25;100.00;101461.34;5264052;28;20055;-83
2021/06/19 11:05:45;;;;;;;18.55;11.85;;;;;;;23.06;100.00;101466.06;5245356;28;20473;-82
2021/06/19 11:08:17;;;;;;;19.60;13.40;;;;;;;23.45;100.00;101461.84;5264560;28;20034;-84
2021/06/19 11:10:47;;;;;;;24.30;13.23;;;;;;;23.66;100.00;101470.56;5255644;28;20391;-83
2021/06/19 11:13:27;;;;;;;20.60;11.77;;;;;;;24.22;100.00;101460.84;5257435;28;20032;-83
2021/06/19 11:16:02;;;;;;;20.83;11.73;;;;;;;24.26;100.00;101471.09;5255629;28;20027;-84
2021/06/19 11:18:51;;;;;;;16.08;11.10;;;;;;;24.19;100.00;101462.16;5256735;28;20016;-84
2021/06/19 11:21:30;;;;;;;16.67;9.80;;;;;;;24.91;100.00;101458.94;5247077;28;20067;-84
2021/06/19 11:24:00;;;;;;;17.70;10.73;;;;;;;24.96;100.00;101464.53;5251305;28;20032;-85
2021/06/19 11:26:55;;;;;;;15.40;10.88;;;;;;;24.78;100.00;101478.44;5256617;28;20032;-84
2021/06/19 11:29:35;;;;;;;17.17;11.13;;;;;;;24.38;100.00;101482.06;5241469;28;20039;-85
2021/06/19 11:32:28;;;;;;;14.68;10.63;;;;;;;24.14;100.00;101474.91;5264258;28;20081;-84
2021/06/19 11:35:19;;;;;;;16.73;10.65;;;;;;;24.25;100.00;101479.56;5263525;28;20103;-84
2021/06/19 11:37:53;;;;;;;14.52;10.68;;;;;;;24.18;100.00;101473.38;5254693;28;20081;-83
2021/06/19 11:40:27;;;;;;;17.50;10.33;;;;;;;24.24;100.00;101467.75;5256489;28;20028;-85